sensor_id;sensor_type;location;lat;lon;timestamp;pressure;altitude;pressure_sealevel;temperature;humidity
24788;BME280;12883;52.662;5.196;2023-02-28T00:00:51;103297.94;;;4.93;100.00
24788;BME280;12883;52.662;5.196;2023-02-28T00:03:16;103303.53;;;5.01;100.00
24788;BME280;12883;52.662;5.196;2023-02-28T00:05:42;103310.88;;;4.96;100.00
24788;BME280;12883;52.662;5.196;2023-02-28T00:08:08;103302.91;;;4.98;100.00
24788;BME280;12883;52.662;5.196;2023-02-28T00:10:33;103302.91;;;5.10;100.00
24788;BME280;12883;52.662;5.196;2023-02-28T00:13:04;103289.97;;;4.95;100.00
24788;BME280;12883;52.662;5.196;2023-02-28T00:15:30;103285.44;;;4.97;100.00
24788;BME280;12883;52.662;5.196;2023-02-28T00:17:56;103293.16;;;5.12;100.00
24788;BME280;12883;52.662;5.196;2023-02-28T00:20:22;103303.56;;;5.14;100.00
24788;BME280;12883;52.662;5.196;2023-02-28T00:22:49;103304.19;;;5.17;100.00
24788;BME280;12883;52.662;5.196;2023-02-28T00:25:18;103296.59;;;5.13;100.00
24788;BME280;12883;52.662;5.196;2023-02-28T00:27:44;103282.50;;;5.01;100.00
24788;BME280;12883;52.662;5.196;2023-02-28T00:30:13;103280.41;;;5.06;100.00
24788;BME280;12883;52.662;5.196;2023-02-28T00:32:38;103280.41;;;5.06;100.00
24788;BME280;12883;52.662;5.196;2023-02-28T00:35:05;103306.53;;;5.22;100.00
24788;BME280;12883;52.662;5.196;2023-02-28T00:37:30;103303.59;;;5.26;100.00
24788;BME280;12883;52.662;5.196;2023-02-28T00:39:56;103298.09;;;5.29;100.00
24788;BME280;12883;52.662;5.196;2023-02-28T00:42:21;103303.38;;;5.29;100.00
24788;BME280;12883;52.662;5.196;2023-02-28T00:44:47;103294.31;;;5.33;100.00
24788;BME280;12883;52.662;5.196;2023-02-28T00:47:12;103298.53;;;5.36;100.00
24788;BME280;12883;52.662;5.196;2023-02-28T00:49:37;103264.94;;;5.14;100.00
24788;BME280;12883;52.662;5.196;2023-02-28T00:52:03;103277.13;;;5.28;100.00
24788;BME280;12883;52.662;5.196;2023-02-28T00:54:28;103286.94;;;5.38;100.00
24788;BME280;12883;52.662;5.196;2023-02-28T00:56:54;103288.19;;;5.45;100.00
24788;BME280;12883;52.662;5.196;2023-02-28T00:59:19;103291.78;;;5.44;100.00
24788;BME280;12883;52.662;5.196;2023-02-28T01:01:45;103289.16;;;5.44;100.00
24788;BME280;12883;52.662;5.196;2023-02-28T01:04:11;103288.19;;;5.45;100.00
24788;BME280;12883;52.662;5.196;2023-02-28T01:06:37;103278.84;;;5.41;100.00
24788;BME280;12883;52.662;5.196;2023-02-28T01:09:04;103280.09;;;5.48;100.00
24788;BME280;12883;52.662;5.196;2023-02-28T01:11:30;103284.00;;;5.55;100.00
24788;BME280;12883;52.662;5.196;2023-02-28T01:13:56;103273.78;;;5.51;100.00
24788;BME280;12883;52.662;5.196;2023-02-28T01:16:21;103258.41;;;5.45;100.00
24788;BME280;12883;52.662;5.196;2023-02-28T01:18:46;103266.00;;;5.49;100.00
24788;BME280;12883;52.662;5.196;2023-02-28T01:21:17;103269.03;;;5.43;100.00
24788;BME280;12883;52.662;5.196;2023-02-28T01:23:43;103274.31;;;5.43;100.00
24788;BME280;12883;52.662;5.196;2023-02-28T01:26:20;103235.56;;;5.33;100.00
24788;BME280;12883;52.662;5.196;2023-02-28T01:28:46;103253.69;;;5.50;100.00
24788;BME280;12883;52.662;5.196;2023-02-28T01:31:12;103242.94;;;5.40;100.00
24788;BME280;12883;52.662;5.196;2023-02-28T01:33:38;103246.94;;;5.46;100.00
24788;BME280;12883;52.662;5.196;2023-02-28T01:36:06;103257.69;;;5.55;100.00
24788;BME280;12883;52.662;5.196;2023-02-28T01:38:32;103267.88;;;5.60;100.00
24788;BME280;12883;52.662;5.196;2023-02-28T01:40:58;103264.63;;;5.56;100.00
24788;BME280;12883;52.662;5.196;2023-02-28T01:43:29;103261.03;;;5.57;100.00
24788;BME280;12883;52.662;5.196;2023-02-28T01:45:57;103262.41;;;5.50;100.00
24788;BME280;12883;52.662;5.196;2023-02-28T01:48:35;103251.16;;;5.48;100.00
24788;BME280;12883;52.662;5.196;2023-02-28T01:51:06;103250.50;;;5.57;100.00
24788;BME280;12883;52.662;5.196;2023-02-28T01:53:39;103235.53;;;5.45;100.00
24788;BME280;12883;52.662;5.196;2023-02-28T01:56:07;103248.28;;;5.51;100.00
24788;BME280;12883;52.662;5.196;2023-02-28T01:58:35;103255.66;;;5.59;100.00
24788;BME280;12883;52.662;5.196;2023-02-28T02:01:02;103239.13;;;5.57;100.00
24788;BME280;12883;52.662;5.196;2023-02-28T02:03:28;103239.78;;;5.60;100.00
24788;BME280;12883;52.662;5.196;2023-02-28T02:05:54;103246.81;;;5.60;100.00
24788;BME280;12883;52.662;5.196;2023-02-28T02:08:22;103207.78;;;5.41;100.00
24788;BME280;12883;52.662;5.196;2023-02-28T02:10:54;103234.69;;;5.57;100.00
24788;BME280;12883;52.662;5.196;2023-02-28T02:16:18;103242.28;;;5.62;100.00
24788;BME280;12883;52.662;5.196;2023-02-28T02:27:20;103235.34;;;5.48;100.00
24788;BME280;12883;52.662;5.196;2023-02-28T02:35:28;103187.56;;;5.29;100.00
24788;BME280;12883;52.662;5.196;2023-02-28T02:41:04;103223.88;;;5.49;100.00
24788;BME280;12883;52.662;5.196;2023-02-28T02:43:40;103230.41;;;5.44;100.00
24788;BME280;12883;52.662;5.196;2023-02-28T02:46:35;103226.72;;;5.46;100.00
24788;BME280;12883;52.662;5.196;2023-02-28T02:49:05;103143.91;;;5.02;100.00
24788;BME280;12883;52.662;5.196;2023-02-28T02:51:32;103189.56;;;5.26;100.00
24788;BME280;12883;52.662;5.196;2023-02-28T02:54:06;103204.84;;;5.33;100.00
24788;BME280;12883;52.662;5.196;2023-02-28T02:56:34;103225.47;;;5.39;100.00
24788;BME280;12883;52.662;5.196;2023-02-28T02:59:03;103226.28;;;5.40;100.00
24788;BME280;12883;52.662;5.196;2023-02-28T03:01:31;103208.19;;;5.35;100.00
24788;BME280;12883;52.662;5.196;2023-02-28T03:04:02;103221.63;;;5.56;100.00
24788;BME280;12883;52.662;5.196;2023-02-28T03:06:29;103225.84;;;5.58;100.00
24788;BME280;12883;52.662;5.196;2023-02-28T03:08:54;103209.56;;;5.53;100.00
24788;BME280;12883;52.662;5.196;2023-02-28T03:11:20;103222.91;;;5.50;100.00
24788;BME280;12883;52.662;5.196;2023-02-28T03:19:25;103222.91;;;5.50;100.00
24788;BME280;12883;52.662;5.196;2023-02-28T03:27:16;103223.44;;;5.55;100.00
24788;BME280;12883;52.662;5.196;2023-02-28T03:29:46;103163.81;;;5.18;100.00
24788;BME280;12883;52.662;5.196;2023-02-28T03:35:21;103214.06;;;5.51;100.00
24788;BME280;12883;52.662;5.196;2023-02-28T03:37:50;103217.56;;;5.52;100.00
24788;BME280;12883;52.662;5.196;2023-02-28T03:40:20;103210.69;;;5.49;100.00
24788;BME280;12883;52.662;5.196;2023-02-28T03:42:49;103219.31;;;5.51;100.00
24788;BME280;12883;52.662;5.196;2023-02-28T03:45:26;103207.31;;;5.60;100.00
24788;BME280;12883;52.662;5.196;2023-02-28T03:53:03;103223.50;;;5.66;100.00
24788;BME280;12883;52.662;5.196;2023-02-28T03:55:33;103219.72;;;5.70;100.00
24788;BME280;12883;52.662;5.196;2023-02-28T04:01:00;103200.91;;;5.51;100.00
24788;BME280;12883;52.662;5.196;2023-02-28T04:03:34;103207.66;;;5.55;100.00
24788;BME280;12883;52.662;5.196;2023-02-28T04:05:59;103203.28;;;5.67;100.00
24788;BME280;12883;52.662;5.196;2023-02-28T04:08:25;103207.81;;;5.77;100.00
24788;BME280;12883;52.662;5.196;2023-02-28T04:10:56;103192.13;;;5.63;100.00
24788;BME280;12883;52.662;5.196;2023-02-28T04:13:22;103215.59;;;5.66;100.00
24788;BME280;12883;52.662;5.196;2023-02-28T04:15:48;103213.94;;;5.78;100.00
24788;BME280;12883;52.662;5.196;2023-02-28T04:18:13;103190.03;;;5.68;100.00
24788;BME280;12883;52.662;5.196;2023-02-28T04:20:38;103218.75;;;5.71;100.00
24788;BME280;12883;52.662;5.196;2023-02-28T04:23:03;103213.25;;;5.51;100.00
24788;BME280;12883;52.662;5.196;2023-02-28T04:25:29;103213.22;;;5.63;100.00
24788;BME280;12883;52.662;5.196;2023-02-28T04:27:54;103210.97;;;5.70;100.00
24788;BME280;12883;52.662;5.196;2023-02-28T04:30:19;103214.22;;;5.73;100.00
24788;BME280;12883;52.662;5.196;2023-02-28T04:32:45;103211.09;;;5.81;100.00
24788;BME280;12883;52.662;5.196;2023-02-28T04:35:10;103225.00;;;5.70;100.00
24788;BME280;12883;52.662;5.196;2023-02-28T04:37:36;103204.53;;;5.74;100.00
24788;BME280;12883;52.662;5.196;2023-02-28T04:40:03;103226.47;;;5.74;100.00
24788;BME280;12883;52.662;5.196;2023-02-28T04:42:28;103204.78;;;5.71;100.00
24788;BME280;12883;52.662;5.196;2023-02-28T04:45:01;103210.44;;;5.77;100.00
24788;BME280;12883;52.662;5.196;2023-02-28T04:47:26;103206.44;;;5.84;100.00
24788;BME280;12883;52.662;5.196;2023-02-28T04:49:52;103203.72;;;5.86;100.00
24788;BME280;12883;52.662;5.196;2023-02-28T04:52:17;103196.97;;;5.82;100.00
24788;BME280;12883;52.662;5.196;2023-02-28T04:54:43;103203.72;;;5.86;100.00
24788;BME280;12883;52.662;5.196;2023-02-28T04:57:08;103198.88;;;5.80;100.00
24788;BME280;12883;52.662;5.196;2023-02-28T04:59:33;103206.44;;;5.84;100.00
24788;BME280;12883;52.662;5.196;2023-02-28T05:01:59;103210.66;;;5.87;100.00
24788;BME280;12883;52.662;5.196;2023-02-28T05:04:24;103210.66;;;5.87;100.00
24788;BME280;12883;52.662;5.196;2023-02-28T05:06:49;103203.81;;;5.84;100.00
24788;BME280;12883;52.662;5.196;2023-02-28T05:09:15;103197.69;;;5.84;100.00
24788;BME280;12883;52.662;5.196;2023-02-28T05:11:41;103206.81;;;5.91;100.00
24788;BME280;12883;52.662;5.196;2023-02-28T05:14:10;103203.91;;;5.83;100.00
24788;BME280;12883;52.662;5.196;2023-02-28T05:16:36;103199.72;;;5.68;100.00
24788;BME280;12883;52.662;5.196;2023-02-28T05:19:01;103209.19;;;5.70;100.00
24788;BME280;12883;52.662;5.196;2023-02-28T05:21:29;103181.59;;;5.63;100.00
24788;BME280;12883;52.662;5.196;2023-02-28T05:23:58;103212.53;;;5.72;100.00
24788;BME280;12883;52.662;5.196;2023-02-28T05:26:24;103210.88;;;5.71;100.00
24788;BME280;12883;52.662;5.196;2023-02-28T05:28:49;103211.19;;;5.67;100.00
24788;BME280;12883;52.662;5.196;2023-02-28T05:31:14;103212.97;;;5.66;100.00
24788;BME280;12883;52.662;5.196;2023-02-28T05:33:40;103212.97;;;5.66;100.00
24788;BME280;12883;52.662;5.196;2023-02-28T05:36:06;103217.94;;;5.71;100.00
24788;BME280;12883;52.662;5.196;2023-02-28T05:38:32;103211.44;;;5.64;100.00
24788;BME280;12883;52.662;5.196;2023-02-28T05:40:57;103205.88;;;5.43;100.00
24788;BME280;12883;52.662;5.196;2023-02-28T05:43:23;103220.59;;;5.58;100.00
24788;BME280;12883;52.662;5.196;2023-02-28T05:45:48;103198.56;;;5.59;100.00
24788;BME280;12883;52.662;5.196;2023-02-28T05:48:13;103203.53;;;5.51;100.00
24788;BME280;12883;52.662;5.196;2023-02-28T05:50:39;103202.91;;;5.48;100.00
24788;BME280;12883;52.662;5.196;2023-02-28T05:53:04;103194.38;;;5.44;100.00
24788;BME280;12883;52.662;5.196;2023-02-28T05:55:30;103206.41;;;5.48;100.00
24788;BME280;12883;52.662;5.196;2023-02-28T05:57:55;103216.81;;;5.50;100.00
24788;BME280;12883;52.662;5.196;2023-02-28T06:00:21;103207.56;;;5.32;100.00
24788;BME280;12883;52.662;5.196;2023-02-28T06:02:47;103220.84;;;5.43;100.00
24788;BME280;12883;52.662;5.196;2023-02-28T06:05:17;103221.75;;;5.54;100.00
24788;BME280;12883;52.662;5.196;2023-02-28T06:07:43;103212.81;;;5.44;100.00
24788;BME280;12883;52.662;5.196;2023-02-28T06:10:10;103237.03;;;5.49;100.00
24788;BME280;12883;52.662;5.196;2023-02-28T06:12:37;103232.41;;;5.40;100.00
24788;BME280;12883;52.662;5.196;2023-02-28T06:15:03;103231.66;;;5.38;100.00
24788;BME280;12883;52.662;5.196;2023-02-28T06:17:28;103227.75;;;5.31;100.00
24788;BME280;12883;52.662;5.196;2023-02-28T06:19:54;103221.44;;;5.34;100.00
24788;BME280;12883;52.662;5.196;2023-02-28T06:22:19;103229.66;;;5.29;100.00
24788;BME280;12883;52.662;5.196;2023-02-28T06:24:44;103229.25;;;5.23;100.00
24788;BME280;12883;52.662;5.196;2023-02-28T06:27:10;103230.94;;;5.24;100.00
24788;BME280;12883;52.662;5.196;2023-02-28T06:29:35;103227.16;;;5.15;100.00
24788;BME280;12883;52.662;5.196;2023-02-28T06:32:01;103225.78;;;5.22;100.00
24788;BME280;12883;52.662;5.196;2023-02-28T06:34:26;103233.03;;;5.19;100.00
24788;BME280;12883;52.662;5.196;2023-02-28T06:36:52;103232.84;;;5.22;100.00
24788;BME280;12883;52.662;5.196;2023-02-28T06:39:18;103211.88;;;4.95;100.00
24788;BME280;12883;52.662;5.196;2023-02-28T06:41:43;103238.63;;;5.14;100.00
24788;BME280;12883;52.662;5.196;2023-02-28T06:44:17;103251.66;;;5.03;100.00
24788;BME280;12883;52.662;5.196;2023-02-28T06:46:44;103243.78;;;5.16;100.00
24788;BME280;12883;52.662;5.196;2023-02-28T06:49:11;103242.41;;;5.10;100.00
24788;BME280;12883;52.662;5.196;2023-02-28T06:51:38;103243.03;;;5.01;100.00
24788;BME280;12883;52.662;5.196;2023-02-28T06:54:04;103236.19;;;4.86;100.00
24788;BME280;12883;52.662;5.196;2023-02-28T06:56:29;103254.69;;;4.85;100.00
24788;BME280;12883;52.662;5.196;2023-02-28T06:58:55;103259.53;;;4.91;100.00
24788;BME280;12883;52.662;5.196;2023-02-28T07:01:21;103265.41;;;4.82;100.00
24788;BME280;12883;52.662;5.196;2023-02-28T07:03:50;103263.28;;;4.74;100.00
24788;BME280;12883;52.662;5.196;2023-02-28T07:06:18;103271.97;;;4.62;100.00
24788;BME280;12883;52.662;5.196;2023-02-28T07:08:44;103269.00;;;4.81;100.00
24788;BME280;12883;52.662;5.196;2023-02-28T07:11:10;103233.56;;;4.47;100.00
24788;BME280;12883;52.662;5.196;2023-02-28T07:13:35;103273.38;;;4.68;100.00
24788;BME280;12883;52.662;5.196;2023-02-28T07:16:03;103276.88;;;4.54;100.00
24788;BME280;12883;52.662;5.196;2023-02-28T07:18:29;103271.63;;;4.54;100.00
24788;BME280;12883;52.662;5.196;2023-02-28T07:20:55;103279.34;;;4.57;100.00
24788;BME280;12883;52.662;5.196;2023-02-28T07:23:20;103284.28;;;4.62;100.00
24788;BME280;12883;52.662;5.196;2023-02-28T07:25:46;103286.13;;;4.47;100.00
24788;BME280;12883;52.662;5.196;2023-02-28T07:28:12;103258.03;;;4.36;100.00
24788;BME280;12883;52.662;5.196;2023-02-28T07:30:38;103278.34;;;4.46;100.00
24788;BME280;12883;52.662;5.196;2023-02-28T07:33:03;103291.75;;;4.42;100.00
24788;BME280;12883;52.662;5.196;2023-02-28T07:35:29;103292.94;;;4.38;100.00
24788;BME280;12883;52.662;5.196;2023-02-28T07:37:58;103289.03;;;4.43;100.00
24788;BME280;12883;52.662;5.196;2023-02-28T07:40:24;103308.78;;;4.36;100.00
24788;BME280;12883;52.662;5.196;2023-02-28T07:42:49;103293.97;;;4.35;100.00
24788;BME280;12883;52.662;5.196;2023-02-28T07:45:14;103298.78;;;4.15;100.00
24788;BME280;12883;52.662;5.196;2023-02-28T07:47:41;103301.59;;;4.12;100.00
24788;BME280;12883;52.662;5.196;2023-02-28T07:50:08;103299.56;;;4.03;100.00
24788;BME280;12883;52.662;5.196;2023-02-28T07:52:39;103295.06;;;4.05;100.00
24788;BME280;12883;52.662;5.196;2023-02-28T07:55:06;103271.19;;;3.67;100.00
24788;BME280;12883;52.662;5.196;2023-02-28T07:57:31;103289.81;;;3.91;100.00
24788;BME280;12883;52.662;5.196;2023-02-28T07:59:57;103265.84;;;3.69;100.00
24788;BME280;12883;52.662;5.196;2023-02-28T08:02:22;103286.81;;;3.97;100.00
24788;BME280;12883;52.662;5.196;2023-02-28T08:04:48;103296.19;;;4.01;100.00
24788;BME280;12883;52.662;5.196;2023-02-28T08:07:14;103298.81;;;4.01;100.00
24788;BME280;12883;52.662;5.196;2023-02-28T08:09:40;103312.41;;;4.07;100.00
24788;BME280;12883;52.662;5.196;2023-02-28T08:12:06;103297.03;;;4.01;100.00
24788;BME280;12883;52.662;5.196;2023-02-28T08:14:33;103288.97;;;3.90;100.00
24788;BME280;12883;52.662;5.196;2023-02-28T08:16:58;103298.72;;;4.02;100.00
24788;BME280;12883;52.662;5.196;2023-02-28T08:19:23;103306.69;;;4.01;100.00
24788;BME280;12883;52.662;5.196;2023-02-28T08:21:49;103316.63;;;4.10;100.00
24788;BME280;12883;52.662;5.196;2023-02-28T08:24:14;103276.72;;;3.77;100.00
24788;BME280;12883;52.662;5.196;2023-02-28T08:26:39;103305.56;;;4.05;100.00
24788;BME280;12883;52.662;5.196;2023-02-28T08:29:05;103287.28;;;3.89;100.00
24788;BME280;12883;52.662;5.196;2023-02-28T08:31:30;103312.78;;;4.01;100.00
24788;BME280;12883;52.662;5.196;2023-02-28T08:33:55;103310.72;;;4.06;100.00
24788;BME280;12883;52.662;5.196;2023-02-28T08:36:24;103302.56;;;4.11;100.00
24788;BME280;12883;52.662;5.196;2023-02-28T08:38:49;103283.91;;;3.87;100.00
24788;BME280;12883;52.662;5.196;2023-02-28T08:41:14;103312.00;;;4.27;100.00
24788;BME280;12883;52.662;5.196;2023-02-28T08:43:40;103322.34;;;4.16;100.00
24788;BME280;12883;52.662;5.196;2023-02-28T08:46:07;103309.50;;;4.12;100.00
24788;BME280;12883;52.662;5.196;2023-02-28T08:48:34;103309.09;;;4.18;100.00
24788;BME280;12883;52.662;5.196;2023-02-28T08:51:02;103310.50;;;4.23;100.00
24788;BME280;12883;52.662;5.196;2023-02-28T08:53:29;103305.81;;;4.28;100.00
24788;BME280;12883;52.662;5.196;2023-02-28T08:56:02;103275.25;;;4.13;100.00
24788;BME280;12883;52.662;5.196;2023-02-28T08:58:28;103313.94;;;4.38;100.00
24788;BME280;12883;52.662;5.196;2023-02-28T09:00:54;103273.16;;;4.18;100.00
24788;BME280;12883;52.662;5.196;2023-02-28T09:03:20;103304.44;;;4.49;100.00
24788;BME280;12883;52.662;5.196;2023-02-28T09:06:00;103304.69;;;4.58;100.00
24788;BME280;12883;52.662;5.196;2023-02-28T09:08:27;103313.41;;;4.59;100.00
24788;BME280;12883;52.662;5.196;2023-02-28T09:10:53;103314.03;;;4.62;100.00
24788;BME280;12883;52.662;5.196;2023-02-28T09:13:20;103280.22;;;4.44;100.00
24788;BME280;12883;52.662;5.196;2023-02-28T09:15:45;103309.25;;;4.69;100.00
24788;BME280;12883;52.662;5.196;2023-02-28T09:18:11;103315.13;;;4.72;100.00
24788;BME280;12883;52.662;5.196;2023-02-28T09:20:40;103282.16;;;4.54;100.00
24788;BME280;12883;52.662;5.196;2023-02-28T09:23:07;103301.38;;;4.81;100.00
24788;BME280;12883;52.662;5.196;2023-02-28T09:25:33;103316.03;;;4.85;100.00
24788;BME280;12883;52.662;5.196;2023-02-28T09:27:58;103309.41;;;4.92;100.00
24788;BME280;12883;52.662;5.196;2023-02-28T09:30:23;103306.97;;;4.89;100.00
24788;BME280;12883;52.662;5.196;2023-02-28T09:32:49;103303.53;;;5.01;100.00
24788;BME280;12883;52.662;5.196;2023-02-28T09:35:18;103310.47;;;5.02;100.00
24788;BME280;12883;52.662;5.196;2023-02-28T09:37:44;103312.63;;;5.10;100.00
24788;BME280;12883;52.662;5.196;2023-02-28T09:40:11;103306.50;;;5.09;100.00
24788;BME280;12883;52.662;5.196;2023-02-28T09:42:37;103308.00;;;5.13;100.00
24788;BME280;12883;52.662;5.196;2023-02-28T09:45:08;103316.44;;;5.18;100.00
24788;BME280;12883;52.662;5.196;2023-02-28T09:47:44;103300.88;;;4.89;100.00
24788;BME280;12883;52.662;5.196;2023-02-28T09:50:33;103306.94;;;5.16;100.00
24788;BME280;12883;52.662;5.196;2023-02-28T09:53:05;103310.41;;;5.16;100.00
24788;BME280;12883;52.662;5.196;2023-02-28T09:55:58;103315.78;;;5.27;100.00
24788;BME280;12883;52.662;5.196;2023-02-28T09:58:39;103318.13;;;5.32;100.00
24788;BME280;12883;52.662;5.196;2023-02-28T10:03:47;103323.38;;;5.44;100.00
24788;BME280;12883;52.662;5.196;2023-02-28T10:06:20;103324.44;;;5.42;100.00
24788;BME280;12883;52.662;5.196;2023-02-28T10:11:16;103278.31;;;5.36;100.00
24788;BME280;12883;52.662;5.196;2023-02-28T10:13:53;103320.22;;;5.64;100.00
24788;BME280;12883;52.662;5.196;2023-02-28T10:16:31;103314.31;;;5.61;100.00
24788;BME280;12883;52.662;5.196;2023-02-28T10:22:14;103317.19;;;5.95;100.00
24788;BME280;12883;52.662;5.196;2023-02-28T10:24:43;103318.53;;;6.01;100.00
24788;BME280;12883;52.662;5.196;2023-02-28T10:27:20;103333.72;;;5.97;100.00
24788;BME280;12883;52.662;5.196;2023-02-28T10:29:53;103337.31;;;5.96;100.00
24788;BME280;12883;52.662;5.196;2023-02-28T10:32:25;103314.69;;;5.81;100.00
24788;BME280;12883;52.662;5.196;2023-02-28T10:34:57;103331.47;;;6.16;100.00
24788;BME280;12883;52.662;5.196;2023-02-28T10:37:24;103327.78;;;6.06;100.00
24788;BME280;12883;52.662;5.196;2023-02-28T10:39:50;103328.41;;;6.10;100.00
24788;BME280;12883;52.662;5.196;2023-02-28T10:42:25;103343.59;;;6.06;100.00
24788;BME280;12883;52.662;5.196;2023-02-28T10:45:10;103344.84;;;6.26;100.00
24788;BME280;12883;52.662;5.196;2023-02-28T10:47:48;103332.47;;;5.90;100.00
24788;BME280;12883;52.662;5.196;2023-02-28T10:50:50;103355.41;;;6.13;100.00
24788;BME280;12883;52.662;5.196;2023-02-28T10:56:05;103345.09;;;6.46;100.00
24788;BME280;12883;52.662;5.196;2023-02-28T10:58:48;103337.78;;;6.26;100.00
24788;BME280;12883;52.662;5.196;2023-02-28T11:01:35;103307.75;;;6.16;100.00
24788;BME280;12883;52.662;5.196;2023-02-28T11:04:00;103325.66;;;6.24;100.00
24788;BME280;12883;52.662;5.196;2023-02-28T11:06:29;103331.16;;;6.21;100.00
24788;BME280;12883;52.662;5.196;2023-02-28T11:09:01;103329.13;;;6.24;100.00
24788;BME280;12883;52.662;5.196;2023-02-28T11:11:29;103336.19;;;6.36;100.00
24788;BME280;12883;52.662;5.196;2023-02-28T11:14:02;103310.34;;;6.29;100.00
24788;BME280;12883;52.662;5.196;2023-02-28T11:16:36;103336.84;;;6.51;100.00
24788;BME280;12883;52.662;5.196;2023-02-28T11:19:04;103323.47;;;6.41;100.00
24788;BME280;12883;52.662;5.196;2023-02-28T11:21:36;103322.03;;;6.37;100.00
24788;BME280;12883;52.662;5.196;2023-02-28T11:26:49;103310.00;;;6.33;100.00
24788;BME280;12883;52.662;5.196;2023-02-28T11:29:29;103283.91;;;6.18;100.00
24788;BME280;12883;52.662;5.196;2023-02-28T11:32:20;103325.13;;;6.31;100.00
24788;BME280;12883;52.662;5.196;2023-02-28T11:35:01;103319.88;;;6.42;100.00
24788;BME280;12883;52.662;5.196;2023-02-28T11:37:27;103319.78;;;6.44;100.00
24788;BME280;12883;52.662;5.196;2023-02-28T11:39:53;103319.28;;;6.39;100.00
24788;BME280;12883;52.662;5.196;2023-02-28T11:47:48;103310.94;;;6.68;100.00
24788;BME280;12883;52.662;5.196;2023-02-28T11:55:49;103308.88;;;6.61;100.00
24788;BME280;12883;52.662;5.196;2023-02-28T11:58:26;103315.66;;;6.52;100.00
24788;BME280;12883;52.662;5.196;2023-02-28T12:01:08;103306.88;;;6.52;100.00
24788;BME280;12883;52.662;5.196;2023-02-28T12:06:24;103322.13;;;6.36;100.00
24788;BME280;12883;52.662;5.196;2023-02-28T12:11:32;103310.25;;;6.30;100.00
24788;BME280;12883;52.662;5.196;2023-02-28T12:22:57;103225.00;;;5.70;100.00
24788;BME280;12883;52.662;5.196;2023-02-28T12:28:25;103307.91;;;6.38;100.00
24788;BME280;12883;52.662;5.196;2023-02-28T12:30:56;103296.09;;;6.31;100.00
24788;BME280;12883;52.662;5.196;2023-02-28T12:33:29;103303.44;;;6.39;100.00
24788;BME280;12883;52.662;5.196;2023-02-28T12:35:59;103297.78;;;6.32;100.00
24788;BME280;12883;52.662;5.196;2023-02-28T12:38:29;103301.09;;;6.23;100.00
24788;BME280;12883;52.662;5.196;2023-02-28T12:40:57;103300.25;;;6.23;100.00
24788;BME280;12883;52.662;5.196;2023-02-28T12:43:30;103301.81;;;6.25;100.00
24788;BME280;12883;52.662;5.196;2023-02-28T12:46:07;103234.81;;;5.68;100.00
24788;BME280;12883;52.662;5.196;2023-02-28T12:48:48;103288.41;;;6.05;100.00
24788;BME280;12883;52.662;5.196;2023-02-28T12:51:16;103285.00;;;6.15;100.00
24788;BME280;12883;52.662;5.196;2023-02-28T12:56:29;103285.72;;;6.17;100.00
24788;BME280;12883;52.662;5.196;2023-02-28T12:59:01;103282.75;;;6.22;100.00
24788;BME280;12883;52.662;5.196;2023-02-28T13:07:45;103233.59;;;5.97;100.00
24788;BME280;12883;52.662;5.196;2023-02-28T13:10:15;103262.66;;;6.08;100.00
24788;BME280;12883;52.662;5.196;2023-02-28T13:12:52;103279.72;;;6.15;100.00
24788;BME280;12883;52.662;5.196;2023-02-28T13:15:22;103281.00;;;6.33;100.00
24788;BME280;12883;52.662;5.196;2023-02-28T13:17:54;103280.06;;;6.34;100.00
24788;BME280;12883;52.662;5.196;2023-02-28T13:20:26;103272.22;;;6.45;100.00
24788;BME280;12883;52.662;5.196;2023-02-28T13:22:54;103278.00;;;6.27;100.00
24788;BME280;12883;52.662;5.196;2023-02-28T13:35:48;103257.34;;;6.44;100.00
24788;BME280;12883;52.662;5.196;2023-02-28T13:38:34;103264.03;;;6.37;100.00
24788;BME280;12883;52.662;5.196;2023-02-28T13:42:01;103262.19;;;6.50;100.00
24788;BME280;12883;52.662;5.196;2023-02-28T13:51:50;103219.47;;;6.22;100.00
24788;BME280;12883;52.662;5.196;2023-02-28T13:57:04;103251.75;;;6.49;100.00
24788;BME280;12883;52.662;5.196;2023-02-28T14:05:12;103254.47;;;6.47;100.00
24788;BME280;12883;52.662;5.196;2023-02-28T14:07:50;103234.19;;;6.37;100.00
24788;BME280;12883;52.662;5.196;2023-02-28T14:10:33;103256.06;;;6.50;100.00
24788;BME280;12883;52.662;5.196;2023-02-28T14:13:02;103255.03;;;6.63;100.00
24788;BME280;12883;52.662;5.196;2023-02-28T14:18:01;103236.91;;;6.59;100.00
24788;BME280;12883;52.662;5.196;2023-02-28T14:20:31;103222.84;;;6.47;100.00
24788;BME280;12883;52.662;5.196;2023-02-28T14:23:12;103240.03;;;6.64;100.00
24788;BME280;12883;52.662;5.196;2023-02-28T14:31:13;103238.75;;;6.69;100.00
24788;BME280;12883;52.662;5.196;2023-02-28T14:36:44;103245.69;;;6.70;100.00
24788;BME280;12883;52.662;5.196;2023-02-28T14:39:22;103244.47;;;6.63;100.00
24788;BME280;12883;52.662;5.196;2023-02-28T14:41:47;103237.16;;;6.67;100.00
24788;BME280;12883;52.662;5.196;2023-02-28T14:46:40;103237.47;;;6.75;100.00
24788;BME280;12883;52.662;5.196;2023-02-28T14:49:07;103236.72;;;6.73;100.00
24788;BME280;12883;52.662;5.196;2023-02-28T14:51:37;103233.34;;;6.71;100.00
24788;BME280;12883;52.662;5.196;2023-02-28T14:54:03;103200.66;;;6.50;100.00
24788;BME280;12883;52.662;5.196;2023-02-28T14:56:37;103240.41;;;6.70;100.00
24788;BME280;12883;52.662;5.196;2023-02-28T14:59:04;103242.00;;;6.73;100.00
24788;BME280;12883;52.662;5.196;2023-02-28T15:01:30;103231.94;;;6.78;100.00
24788;BME280;12883;52.662;5.196;2023-02-28T15:04:21;103226.06;;;6.74;100.00
24788;BME280;12883;52.662;5.196;2023-02-28T15:07:10;103228.44;;;6.77;100.00
24788;BME280;12883;52.662;5.196;2023-02-28T15:09:36;103210.69;;;6.68;100.00
24788;BME280;12883;52.662;5.196;2023-02-28T15:12:01;103234.47;;;6.79;100.00